createdAt,value
2023-01-07T00:00:08.365Z,553.30
2023-01-07T00:01:08.355Z,513.00
2023-01-07T00:02:08.382Z,266.60
2023-01-07T00:03:08.327Z,243.10
2023-01-07T00:04:08.408Z,246.50
2023-01-07T00:05:08.275Z,237.30
2023-01-07T00:06:08.275Z,274.50
2023-01-07T00:07:09.915Z,294.70
2023-01-07T00:08:08.276Z,301.00
2023-01-07T00:09:08.244Z,313.50
2023-01-07T00:10:08.248Z,559.40
2023-01-07T00:11:08.241Z,559.50
2023-01-07T00:12:08.253Z,388.10
2023-01-07T00:13:08.215Z,314.70
2023-01-07T00:14:08.199Z,352.90
2023-01-07T00:15:08.177Z,449.10
2023-01-07T00:16:08.264Z,527.40
2023-01-07T00:17:08.199Z,487.70
2023-01-07T00:18:08.173Z,521.80
2023-01-07T00:19:08.155Z,473.50
2023-01-07T00:20:08.137Z,482.00
2023-01-07T00:21:08.107Z,470.80
2023-01-07T00:22:08.130Z,465.30
2023-01-07T00:23:08.089Z,482.00
2023-01-07T00:24:08.111Z,483.20
2023-01-07T00:25:08.064Z,500.70
2023-01-07T00:26:08.072Z,499.40
2023-01-07T00:27:08.091Z,508.30
2023-01-07T00:28:08.051Z,504.30
2023-01-07T00:29:08.036Z,494.10
2023-01-07T00:30:08.005Z,497.00
2023-01-07T00:31:08.046Z,523.50
2023-01-07T00:32:08.048Z,529.10
2023-01-07T00:33:07.982Z,535.70
2023-01-07T00:34:07.974Z,523.10
2023-01-07T00:35:07.947Z,524.60
2023-01-07T00:36:07.938Z,531.50
2023-01-07T00:37:07.968Z,519.00
2023-01-07T00:38:07.935Z,512.90
2023-01-07T00:39:07.892Z,465.00
2023-01-07T00:40:07.933Z,414.50
2023-01-07T00:41:07.887Z,445.40
2023-01-07T00:42:07.923Z,490.20
2023-01-07T00:43:07.910Z,553.80
2023-01-07T00:44:07.881Z,543.60
2023-01-07T00:45:07.851Z,545.70
2023-01-07T00:46:07.835Z,563.30
2023-01-07T00:47:07.858Z,526.70
2023-01-07T00:48:07.841Z,571.70
2023-01-07T00:49:07.815Z,588.30
2023-01-07T00:50:07.899Z,544.50
2023-01-07T00:51:07.789Z,582.20
2023-01-07T00:52:07.765Z,614.90
2023-01-07T00:53:07.789Z,553.80
2023-01-07T00:54:07.763Z,488.30
2023-01-07T00:55:07.744Z,557.40
2023-01-07T00:56:07.719Z,484.00
2023-01-07T00:57:07.706Z,613.70
2023-01-07T00:58:07.825Z,526.40
2023-01-07T00:59:07.701Z,649.70
2023-01-07T01:00:07.684Z,657.00
2023-01-07T01:01:07.745Z,653.30
2023-01-07T01:02:07.829Z,652.00
2023-01-07T01:03:07.696Z,675.90
2023-01-07T01:04:07.655Z,692.70
2023-01-07T01:05:07.644Z,664.70
2023-01-07T01:06:07.600Z,612.80
2023-01-07T01:07:07.590Z,606.50
2023-01-07T01:08:07.616Z,586.30
2023-01-07T01:09:07.592Z,581.70
2023-01-07T01:10:07.576Z,592.90
2023-01-07T01:11:07.547Z,601.00
2023-01-07T01:12:07.550Z,625.10
2023-01-07T01:13:07.576Z,637.90
2023-01-07T01:14:07.544Z,657.60
2023-01-07T01:15:07.502Z,647.20
2023-01-07T01:16:07.527Z,613.30
2023-01-07T01:17:07.474Z,611.60
2023-01-07T01:18:07.517Z,597.60
2023-01-07T01:19:07.479Z,612.00
2023-01-07T01:20:07.442Z,599.00
2023-01-07T01:21:07.450Z,603.00
2023-01-07T01:22:07.438Z,611.40
2023-01-07T01:23:07.479Z,613.30
2023-01-07T01:24:07.418Z,614.50
2023-01-07T01:25:07.451Z,627.50
2023-01-07T01:26:07.393Z,616.50
2023-01-07T01:27:07.374Z,619.80
2023-01-07T01:28:07.381Z,609.70
2023-01-07T01:29:07.396Z,572.70
2023-01-07T01:30:07.360Z,553.70
2023-01-07T01:31:07.356Z,538.00
2023-01-07T01:32:07.326Z,569.40
2023-01-07T01:33:07.313Z,510.10
2023-01-07T01:34:07.334Z,525.90
2023-01-07T01:35:07.298Z,608.10
2023-01-07T01:36:07.265Z,634.30
2023-01-07T01:37:07.258Z,630.70
2023-01-07T01:38:07.238Z,574.50
2023-01-07T01:39:07.253Z,635.10
2023-01-07T01:40:07.236Z,609.90
2023-01-07T01:41:07.239Z,551.80
2023-01-07T01:42:07.223Z,557.00
2023-01-07T01:43:07.200Z,595.50
2023-01-07T01:44:07.212Z,529.30
2023-01-07T01:45:07.175Z,570.40
2023-01-07T01:46:07.159Z,594.30
2023-01-07T01:47:07.152Z,656.00
2023-01-07T01:48:07.137Z,630.00
2023-01-07T01:49:07.141Z,658.40
2023-01-07T01:50:07.110Z,646.70
2023-01-07T01:51:07.107Z,664.40
2023-01-07T01:52:07.112Z,663.10
2023-01-07T01:53:07.087Z,639.30
2023-01-07T01:54:07.103Z,642.50
2023-01-07T01:55:07.063Z,658.60
2023-01-07T01:56:07.070Z,652.80
2023-01-07T01:57:07.027Z,664.30
2023-01-07T01:58:07.030Z,596.00
2023-01-07T01:59:07.047Z,627.30
2023-01-07T02:00:07.015Z,541.50
2023-01-07T02:01:07.086Z,470.00
2023-01-07T02:02:07.067Z,545.80
2023-01-07T02:03:06.962Z,532.40
2023-01-07T02:04:07.014Z,452.00
2023-01-07T02:05:06.954Z,558.50
2023-01-07T02:06:06.937Z,444.20
2023-01-07T02:07:06.911Z,569.70
2023-01-07T02:08:06.891Z,447.50
2023-01-07T02:09:06.930Z,550.80
2023-01-07T02:10:06.925Z,532.50
2023-01-07T02:11:06.870Z,544.20
2023-01-07T02:12:06.861Z,552.40
2023-01-07T02:13:06.846Z,570.40
2023-01-07T02:14:06.893Z,594.20
2023-01-07T02:15:06.845Z,614.90
2023-01-07T02:16:06.869Z,680.20
2023-01-07T02:17:06.815Z,681.50
2023-01-07T02:18:06.808Z,687.90
2023-01-07T02:19:06.818Z,690.60
2023-01-07T02:20:06.789Z,685.00
2023-01-07T02:21:06.775Z,670.10
2023-01-07T02:22:06.757Z,680.80
2023-01-07T02:23:06.766Z,693.30
2023-01-07T02:24:06.768Z,681.10
2023-01-07T02:25:06.720Z,692.30
2023-01-07T02:26:06.725Z,680.60
2023-01-07T02:27:06.689Z,698.20
2023-01-07T02:28:06.696Z,695.10
2023-01-07T02:29:06.665Z,691.90
2023-01-07T02:30:06.710Z,689.10
2023-01-07T02:31:06.650Z,680.80
2023-01-07T02:32:06.647Z,682.60
2023-01-07T02:33:06.655Z,684.20
2023-01-07T02:34:06.615Z,627.90
2023-01-07T02:35:06.641Z,617.20
2023-01-07T02:36:06.582Z,621.40
2023-01-07T02:37:06.574Z,632.10
2023-01-07T02:38:06.567Z,640.70
2023-01-07T02:39:06.549Z,656.80
2023-01-07T02:40:06.601Z,691.00
2023-01-07T02:41:06.523Z,721.60
2023-01-07T02:42:06.539Z,762.70
2023-01-07T02:43:06.513Z,755.90
2023-01-07T02:44:06.523Z,772.60
2023-01-07T02:45:06.549Z,762.80
2023-01-07T02:46:06.539Z,750.10
2023-01-07T02:47:06.470Z,734.40
2023-01-07T02:48:06.464Z,732.80
2023-01-07T02:49:06.466Z,691.70
2023-01-07T02:50:06.487Z,734.10
2023-01-07T02:51:06.429Z,716.90
2023-01-07T02:52:06.443Z,711.60
2023-01-07T02:53:06.414Z,704.20
2023-01-07T02:54:06.396Z,277.30
2023-01-07T02:55:06.412Z,273.30
2023-01-07T02:56:06.380Z,282.00
2023-01-07T02:57:06.347Z,297.50
2023-01-07T02:58:06.364Z,280.40
2023-01-07T02:59:06.333Z,290.80
2023-01-07T03:00:06.361Z,287.10
2023-01-07T03:01:06.436Z,299.60
2023-01-07T03:02:06.353Z,304.80
2023-01-07T03:03:06.310Z,307.30
2023-01-07T03:04:06.292Z,304.70
2023-01-07T03:05:06.307Z,305.10
2023-01-07T03:06:06.260Z,303.00
2023-01-07T03:07:06.247Z,309.80
2023-01-07T03:08:06.212Z,656.20
2023-01-07T03:09:06.206Z,695.40
2023-01-07T03:10:06.276Z,674.20
2023-01-07T03:11:06.202Z,705.00
2023-01-07T03:12:06.200Z,716.00
2023-01-07T03:13:06.176Z,729.20
2023-01-07T03:14:06.180Z,725.50
2023-01-07T03:15:06.196Z,732.70
2023-01-07T03:16:06.208Z,712.10
2023-01-07T03:17:06.141Z,693.00
2023-01-07T03:18:06.143Z,273.40
2023-01-07T03:19:06.127Z,325.10
2023-01-07T03:20:06.154Z,355.10
2023-01-07T03:21:06.122Z,380.80
2023-01-07T03:22:06.066Z,347.50
2023-01-07T03:23:06.085Z,504.50
2023-01-07T03:24:06.060Z,396.80
2023-01-07T03:25:06.072Z,331.50
2023-01-07T03:26:06.061Z,343.60
2023-01-07T03:27:06.039Z,393.40
2023-01-07T03:28:06.042Z,400.10
2023-01-07T03:29:05.989Z,333.90
2023-01-07T03:30:06.025Z,366.60
2023-01-07T03:31:05.978Z,368.10
2023-01-07T03:32:06.068Z,380.10
2023-01-07T03:33:05.956Z,354.80
2023-01-07T03:34:05.963Z,366.10
2023-01-07T03:35:05.965Z,364.50
2023-01-07T03:36:05.950Z,366.00
2023-01-07T03:37:05.910Z,378.10
2023-01-07T03:38:05.892Z,405.50
2023-01-07T03:39:05.877Z,418.90
2023-01-07T03:40:05.914Z,412.40
2023-01-07T03:41:05.889Z,374.10
2023-01-07T03:42:05.891Z,393.50
2023-01-07T03:43:05.872Z,377.50
2023-01-07T03:44:05.841Z,359.30
2023-01-07T03:45:05.871Z,347.50
2023-01-07T03:46:05.903Z,352.10
2023-01-07T03:47:05.805Z,359.70
2023-01-07T03:48:05.798Z,372.30
2023-01-07T03:49:05.776Z,399.70
2023-01-07T03:50:05.800Z,422.70
2023-01-07T03:51:05.761Z,458.00
2023-01-07T03:52:05.733Z,167.50
2023-01-07T03:53:05.728Z,153.30
2023-01-07T03:54:05.723Z,182.30
2023-01-07T03:55:05.744Z,263.70
2023-01-07T03:56:05.685Z,207.80
2023-01-07T03:57:05.712Z,191.10
2023-01-07T03:58:05.685Z,220.60
2023-01-07T03:59:05.663Z,260.90
2023-01-07T04:00:05.691Z,370.60
2023-01-07T04:01:05.740Z,159.50
2023-01-07T04:02:05.936Z,51.80
2023-01-07T04:03:05.631Z,114.30
2023-01-07T04:04:05.700Z,284.60
2023-01-07T04:05:05.631Z,46.10
2023-01-07T04:06:05.579Z,175.80
2023-01-07T04:07:05.570Z,162.40
2023-01-07T04:08:05.546Z,246.00
2023-01-07T04:09:05.527Z,253.00
2023-01-07T04:10:05.509Z,303.60
2023-01-07T04:11:05.568Z,343.70
2023-01-07T04:12:05.519Z,354.10
2023-01-07T04:13:05.499Z,365.80
2023-01-07T04:14:05.511Z,349.40
2023-01-07T04:15:05.492Z,343.20
2023-01-07T04:16:05.521Z,280.20
2023-01-07T04:17:05.459Z,171.70
2023-01-07T04:18:05.455Z,276.90
2023-01-07T04:19:05.441Z,356.80
2023-01-07T04:20:05.448Z,336.00
2023-01-07T04:21:05.440Z,301.10
2023-01-07T04:22:05.385Z,327.10
2023-01-07T04:23:05.394Z,333.60
2023-01-07T04:24:05.379Z,341.70
2023-01-07T04:25:05.375Z,336.70
2023-01-07T04:26:05.464Z,355.80
2023-01-07T04:27:05.383Z,375.50
2023-01-07T04:28:05.364Z,373.80
2023-01-07T04:29:05.335Z,379.60
2023-01-07T04:30:05.353Z,373.60
2023-01-07T04:31:05.392Z,78.20
2023-01-07T04:32:05.300Z,68.40
2023-01-07T04:33:05.288Z,309.20
2023-01-07T04:34:05.288Z,400.50
2023-01-07T04:35:05.266Z,484.50
2023-01-07T04:36:05.278Z,387.80
2023-01-07T04:37:05.264Z,491.60
2023-01-07T04:38:05.230Z,369.30
2023-01-07T04:39:05.195Z,484.20
2023-01-07T04:40:05.193Z,442.80
2023-01-07T04:41:05.243Z,418.20
2023-01-07T04:42:05.168Z,402.60
2023-01-07T04:43:05.179Z,403.90
2023-01-07T04:44:05.167Z,422.30
2023-01-07T04:45:05.161Z,399.10
2023-01-07T04:46:05.216Z,402.30
2023-01-07T04:47:05.132Z,387.10
2023-01-07T04:48:05.116Z,386.60
2023-01-07T04:49:05.116Z,374.30
2023-01-07T04:50:05.108Z,361.10
2023-01-07T04:51:05.108Z,326.70
2023-01-07T04:52:05.061Z,283.10
2023-01-07T04:53:05.061Z,262.10
2023-01-07T04:54:05.051Z,285.30
2023-01-07T04:55:05.035Z,284.30
2023-01-07T04:56:05.063Z,279.10
2023-01-07T04:57:05.028Z,287.80
2023-01-07T04:58:05.012Z,256.10
2023-01-07T04:59:04.984Z,266.30
2023-01-07T05:00:04.984Z,249.90
2023-01-07T05:01:05.124Z,286.70
2023-01-07T05:02:05.100Z,229.20
2023-01-07T05:03:04.962Z,242.60
2023-01-07T05:04:04.946Z,235.90
2023-01-07T05:05:04.919Z,226.60
2023-01-07T05:06:04.966Z,246.80
2023-01-07T05:07:04.939Z,243.20
2023-01-07T05:08:04.891Z,228.90
2023-01-07T05:09:04.888Z,235.60
2023-01-07T05:10:04.864Z,243.90
2023-01-07T05:11:04.883Z,247.60
2023-01-07T05:12:04.849Z,247.90
2023-01-07T05:13:06.714Z,257.20
2023-01-07T05:14:04.882Z,257.10
2023-01-07T05:15:04.839Z,259.20
2023-01-07T05:16:04.865Z,191.70
2023-01-07T05:17:04.851Z,178.30
2023-01-07T05:18:04.766Z,363.60
2023-01-07T05:19:04.780Z,434.40
2023-01-07T05:20:04.754Z,426.50
2023-01-07T05:21:04.781Z,402.50
2023-01-07T05:22:04.745Z,398.20
2023-01-07T05:23:04.740Z,339.20
2023-01-07T05:24:04.716Z,409.10
2023-01-07T05:25:04.709Z,328.50
2023-01-07T05:26:04.743Z,349.30
2023-01-07T05:27:04.701Z,344.30
2023-01-07T05:28:04.663Z,336.50
2023-01-07T05:29:04.683Z,333.80
2023-01-07T05:30:04.656Z,309.00
2023-01-07T05:31:04.741Z,288.00
2023-01-07T05:32:04.627Z,338.10
2023-01-07T05:33:04.616Z,292.40
2023-01-07T05:34:04.615Z,341.20
2023-01-07T05:35:04.604Z,326.90
2023-01-07T05:36:04.607Z,349.60
2023-01-07T05:37:04.573Z,408.80
2023-01-07T05:38:04.584Z,341.90
2023-01-07T05:39:04.545Z,337.10
2023-01-07T05:40:04.542Z,341.00
2023-01-07T05:41:04.549Z,350.50
2023-01-07T05:42:04.517Z,354.90
2023-01-07T05:43:04.527Z,348.80
2023-01-07T05:44:04.491Z,340.00
2023-01-07T05:45:04.491Z,355.00
2023-01-07T05:46:04.538Z,311.90
2023-01-07T05:47:04.483Z,331.60
2023-01-07T05:48:04.454Z,320.00
2023-01-07T05:49:04.434Z,303.90
2023-01-07T05:50:04.428Z,293.30
2023-01-07T05:51:04.477Z,298.60
2023-01-07T05:52:04.427Z,303.20
2023-01-07T05:53:04.408Z,301.00
2023-01-07T05:54:04.403Z,311.10
2023-01-07T05:55:04.373Z,290.80
2023-01-07T05:56:04.406Z,296.80
2023-01-07T05:57:04.366Z,343.80
2023-01-07T05:58:04.335Z,308.50
2023-01-07T05:59:04.350Z,312.10
2023-01-07T06:00:04.369Z,322.60
2023-01-07T06:01:04.402Z,314.10
2023-01-07T06:02:04.294Z,322.00
2023-01-07T06:03:04.320Z,335.20
2023-01-07T06:04:04.273Z,330.20
2023-01-07T06:05:04.350Z,343.50
2023-01-07T06:06:04.310Z,365.80
2023-01-07T06:07:04.255Z,361.90
2023-01-07T06:08:04.239Z,384.80
2023-01-07T06:09:04.234Z,395.40
2023-01-07T06:10:04.204Z,389.80
2023-01-07T06:11:04.233Z,389.80
2023-01-07T06:12:04.182Z,380.80
2023-01-07T06:13:04.190Z,320.40
2023-01-07T06:14:04.166Z,105.80
2023-01-07T06:15:04.153Z,117.50
2023-01-07T06:16:04.210Z,102.00
2023-01-07T06:17:04.138Z,76.50
2023-01-07T06:18:04.139Z,167.40
2023-01-07T06:19:04.128Z,242.40
2023-01-07T06:20:04.088Z,46.70
2023-01-07T06:21:04.121Z,141.20
2023-01-07T06:22:04.069Z,160.60
2023-01-07T06:23:04.073Z,52.80
2023-01-07T06:24:04.053Z,196.90
2023-01-07T06:25:04.057Z,368.50
2023-01-07T06:26:04.087Z,421.70
2023-01-07T06:27:04.023Z,438.00
2023-01-07T06:28:04.001Z,413.70
2023-01-07T06:29:03.993Z,404.30
2023-01-07T06:30:03.996Z,409.40
2023-01-07T06:31:04.052Z,463.50
2023-01-07T06:32:03.976Z,490.60
2023-01-07T06:33:03.942Z,494.90
2023-01-07T06:34:03.964Z,474.00
2023-01-07T06:35:03.938Z,467.50
2023-01-07T06:36:03.952Z,462.40
2023-01-07T06:37:03.900Z,437.20
2023-01-07T06:38:03.919Z,449.70
2023-01-07T06:39:03.890Z,453.30
2023-01-07T06:40:03.855Z,458.20
2023-01-07T06:41:03.900Z,466.80
2023-01-07T06:42:03.847Z,497.20
2023-01-07T06:43:03.826Z,432.70
2023-01-07T06:44:03.825Z,248.30
2023-01-07T06:45:03.823Z,162.80
2023-01-07T06:46:03.874Z,221.20
2023-01-07T06:47:03.823Z,356.70
2023-01-07T06:48:03.785Z,216.10
2023-01-07T06:49:03.780Z,127.60
2023-01-07T06:50:03.742Z,313.50
2023-01-07T06:51:03.744Z,324.10
2023-01-07T06:52:03.774Z,145.80
2023-01-07T06:53:03.729Z,130.30
2023-01-07T06:54:03.714Z,122.10
2023-01-07T06:55:03.704Z,358.60
2023-01-07T06:56:03.687Z,297.20
2023-01-07T06:57:03.720Z,124.70
2023-01-07T06:58:03.668Z,346.40
2023-01-07T06:59:03.665Z,307.60
2023-01-07T07:00:03.640Z,111.10
2023-01-07T07:01:03.720Z,212.50
2023-01-07T07:02:03.752Z,376.40
2023-01-07T07:03:03.676Z,89.60
2023-01-07T07:04:03.594Z,369.70
2023-01-07T07:05:03.583Z,332.70
2023-01-07T07:06:03.572Z,138.60
2023-01-07T07:07:03.592Z,110.60
2023-01-07T07:08:03.575Z,418.50
2023-01-07T07:09:03.547Z,115.80
2023-01-07T07:10:03.536Z,186.50
2023-01-07T07:11:03.526Z,398.40
2023-01-07T07:12:03.542Z,113.80
2023-01-07T07:13:03.479Z,284.40
2023-01-07T07:14:03.478Z,301.20
2023-01-07T07:15:03.481Z,96.70
2023-01-07T07:16:03.520Z,122.10
2023-01-07T07:17:03.502Z,463.70
2023-01-07T07:18:03.453Z,156.10
2023-01-07T07:19:03.443Z,96.50
2023-01-07T07:20:03.416Z,241.60
2023-01-07T07:21:03.399Z,334.20
2023-01-07T07:22:04.748Z,240.80
2023-01-07T07:23:03.403Z,106.80
2023-01-07T07:24:03.392Z,451.60
2023-01-07T07:25:03.376Z,91.20
2023-01-07T07:26:03.333Z,419.40
2023-01-07T07:27:03.394Z,87.90
2023-01-07T07:28:03.320Z,417.30
2023-01-07T07:29:03.327Z,90.80
2023-01-07T07:30:03.305Z,82.30
2023-01-07T07:31:03.316Z,452.90
2023-01-07T07:32:03.336Z,72.40
2023-01-07T07:33:03.278Z,343.80
2023-01-07T07:34:03.252Z,89.10
2023-01-07T07:35:03.261Z,434.50
2023-01-07T07:36:03.241Z,76.90
2023-01-07T07:37:03.263Z,354.50
2023-01-07T07:38:03.220Z,72.90
2023-01-07T07:39:03.208Z,474.00
2023-01-07T07:40:03.201Z,56.80
2023-01-07T07:41:03.171Z,107.90
2023-01-07T07:42:03.206Z,470.70
2023-01-07T07:43:11.715Z,45.50
2023-01-07T07:44:04.147Z,257.00
2023-01-07T07:45:03.176Z,472.80
2023-01-07T07:46:03.113Z,44.00
2023-01-07T07:47:03.157Z,474.10
2023-01-07T07:48:03.089Z,43.10
2023-01-07T07:49:03.097Z,435.50
2023-01-07T07:50:03.088Z,117.00
2023-01-07T07:51:03.072Z,44.30
2023-01-07T07:52:03.075Z,483.70
2023-01-07T07:53:03.036Z,44.50
2023-01-07T07:54:03.024Z,232.20
2023-01-07T07:55:20.436Z,48.10
2023-01-07T07:56:03.991Z,100.80
2023-01-07T07:57:03.021Z,442.50
2023-01-07T07:58:02.980Z,64.80
2023-01-07T07:59:02.979Z,198.10
2023-01-07T08:00:02.965Z,205.20
2023-01-07T08:01:03.020Z,132.30
2023-01-07T08:02:03.063Z,154.90
2023-01-07T08:03:02.985Z,208.00
2023-01-07T08:04:02.934Z,93.10
2023-01-07T08:05:02.893Z,115.00
2023-01-07T08:06:02.882Z,200.70
2023-01-07T08:07:02.881Z,187.10
2023-01-07T08:08:02.927Z,123.20
2023-01-07T08:09:02.852Z,155.70
2023-01-07T08:10:02.876Z,116.10
2023-01-07T08:11:02.848Z,167.30
2023-01-07T08:12:02.850Z,164.40
2023-01-07T08:13:02.872Z,163.60
2023-01-07T08:14:02.843Z,184.30
2023-01-07T08:15:02.810Z,172.90
2023-01-07T08:16:02.817Z,238.50
2023-01-07T08:17:02.800Z,153.80
2023-01-07T08:18:02.815Z,338.70
2023-01-07T08:19:02.756Z,418.40
2023-01-07T08:20:02.745Z,195.10
2023-01-07T08:21:02.758Z,600.40
2023-01-07T08:22:02.723Z,250.20
2023-01-07T08:23:02.747Z,210.60
2023-01-07T08:24:02.715Z,420.70
2023-01-07T08:25:02.681Z,384.80
2023-01-07T08:26:02.709Z,171.40
2023-01-07T08:27:02.660Z,629.20
2023-01-07T08:28:02.699Z,936.90
2023-01-07T08:29:02.643Z,141.70
2023-01-07T08:30:02.624Z,661.60
2023-01-07T08:31:02.679Z,208.50
2023-01-07T08:32:02.608Z,256.10
2023-01-07T08:33:02.609Z,176.10
2023-01-07T08:34:02.589Z,740.50
2023-01-07T08:35:02.583Z,291.20
2023-01-07T08:36:06.949Z,664.50
2023-01-07T08:37:02.540Z,999.90
2023-01-07T08:38:02.582Z,402.70
2023-01-07T08:39:02.532Z,999.90
2023-01-07T08:40:04.663Z,920.00
2023-01-07T08:41:02.500Z,999.90
2023-01-07T08:42:02.513Z,219.00
2023-01-07T08:43:02.532Z,999.90
2023-01-07T08:44:02.474Z,174.60
2023-01-07T08:45:02.460Z,999.90
2023-01-07T08:46:02.442Z,210.40
2023-01-07T08:47:02.472Z,999.90
2023-01-07T08:48:02.468Z,142.40
2023-01-07T08:49:02.420Z,999.90
2023-01-07T08:50:02.400Z,999.90
2023-01-07T08:51:02.384Z,999.90
2023-01-07T08:52:02.378Z,230.70
2023-01-07T08:53:02.416Z,999.90
2023-01-07T08:54:02.343Z,999.90
2023-01-07T08:55:02.363Z,999.90
2023-01-07T08:56:02.359Z,999.90
2023-01-07T08:57:02.348Z,999.90
2023-01-07T08:58:02.341Z,999.90
2023-01-07T08:59:02.275Z,999.90
2023-01-07T09:00:02.308Z,999.90
2023-01-07T09:01:02.390Z,999.90
2023-01-07T09:02:02.337Z,999.90
2023-01-07T09:03:02.297Z,999.90
2023-01-07T09:04:02.241Z,999.90
2023-01-07T09:05:02.237Z,999.90
2023-01-07T09:06:02.222Z,999.90
2023-01-07T09:07:02.196Z,999.90
2023-01-07T09:08:02.238Z,999.90
2023-01-07T09:09:02.179Z,999.90
2023-01-07T09:10:02.196Z,999.90
2023-01-07T09:11:02.176Z,999.90
2023-01-07T09:12:02.176Z,999.90
2023-01-07T09:13:02.179Z,999.90
2023-01-07T09:14:02.131Z,999.90
2023-01-07T09:15:02.102Z,999.90
2023-01-07T09:16:02.129Z,999.90
2023-01-07T09:17:02.085Z,999.90
2023-01-07T09:18:02.131Z,999.90
2023-01-07T09:19:02.082Z,999.90
2023-01-07T09:20:02.083Z,999.90
2023-01-07T09:21:02.064Z,999.90
2023-01-07T09:22:02.064Z,999.90
2023-01-07T09:23:02.085Z,999.90
2023-01-07T09:24:02.046Z,999.90
2023-01-07T09:25:01.994Z,999.90
2023-01-07T09:26:02.016Z,999.90
2023-01-07T09:27:02.002Z,999.90
2023-01-07T09:28:01.992Z,373.50
2023-01-07T09:29:02.009Z,999.90
2023-01-07T09:30:01.967Z,222.90
2023-01-07T09:31:01.949Z,556.10
2023-01-07T09:32:01.916Z,943.10
2023-01-07T09:33:01.941Z,999.90
2023-01-07T09:34:01.951Z,836.30
2023-01-07T09:35:01.892Z,999.90
2023-01-07T09:36:01.905Z,999.90
2023-01-07T09:37:01.867Z,999.90
2023-01-07T09:38:01.862Z,999.90
2023-01-07T09:39:01.874Z,999.90
2023-01-07T09:40:01.845Z,999.90
2023-01-07T09:41:01.833Z,999.90
2023-01-07T09:42:01.813Z,999.90
2023-01-07T09:43:01.840Z,999.90
2023-01-07T09:44:02.107Z,999.90
2023-01-07T09:45:01.778Z,999.90
2023-01-07T09:46:01.835Z,999.90
2023-01-07T09:47:01.743Z,999.90
2023-01-07T09:48:01.740Z,999.90
2023-01-07T09:49:01.773Z,999.90
2023-01-07T09:50:01.718Z,999.90
2023-01-07T09:51:01.732Z,999.90
2023-01-07T09:52:01.714Z,999.90
2023-01-07T09:53:01.680Z,999.90
2023-01-07T09:54:01.719Z,999.90
2023-01-07T09:55:01.675Z,999.90
2023-01-07T09:56:10.687Z,999.90
2023-01-07T09:57:02.648Z,999.90
2023-01-07T09:58:01.652Z,999.90
2023-01-07T09:59:01.675Z,999.90
2023-01-07T10:00:01.622Z,999.90
2023-01-07T10:01:01.668Z,999.90
2023-01-07T10:02:01.607Z,999.90
2023-01-07T10:03:01.573Z,999.90
2023-01-07T10:04:01.647Z,999.90
2023-01-07T10:05:01.556Z,999.90
2023-01-07T10:06:01.555Z,999.90
2023-01-07T10:07:01.535Z,999.90
2023-01-07T10:08:30.084Z,999.90
2023-01-07T10:09:02.539Z,999.90
2023-01-07T10:10:01.508Z,999.90
2023-01-07T10:11:01.512Z,999.90
2023-01-07T10:12:01.476Z,999.90
2023-01-07T10:13:01.456Z,999.90
2023-01-07T10:14:01.475Z,999.90
2023-01-07T10:15:01.481Z,999.90
2023-01-07T10:16:01.474Z,999.90
2023-01-07T10:17:01.402Z,999.90
2023-01-07T10:18:01.396Z,999.90
2023-01-07T10:19:01.397Z,999.90
2023-01-07T10:20:01.449Z,999.90
2023-01-07T10:21:01.370Z,999.90
2023-01-07T10:22:01.366Z,999.90
2023-01-07T10:23:01.350Z,999.90
2023-01-07T10:24:01.334Z,999.90
2023-01-07T10:25:01.361Z,999.90
2023-01-07T10:26:01.342Z,999.90
2023-01-07T10:27:01.291Z,999.90
2023-01-07T10:28:01.293Z,999.90
2023-01-07T10:29:01.276Z,999.90
2023-01-07T10:30:01.328Z,999.90
2023-01-07T10:31:01.257Z,999.90
2023-01-07T10:32:01.317Z,999.90
2023-01-07T10:33:01.252Z,999.90
2023-01-07T10:34:01.232Z,999.90
2023-01-07T10:35:01.288Z,999.90
2023-01-07T10:36:01.216Z,999.90
2023-01-07T10:37:01.207Z,999.90
2023-01-07T10:38:01.195Z,999.90
2023-01-07T10:39:01.185Z,999.90
2023-01-07T10:40:01.192Z,999.90
2023-01-07T10:41:01.148Z,999.90
2023-01-07T10:42:01.141Z,999.90
2023-01-07T10:43:01.116Z,999.90
2023-01-07T10:44:01.126Z,999.90
2023-01-07T10:45:01.163Z,999.90
2023-01-07T10:46:01.180Z,999.90
2023-01-07T10:47:01.076Z,999.90
2023-01-07T10:48:01.057Z,999.90
2023-01-07T10:49:01.068Z,999.90
2023-01-07T10:50:01.105Z,999.90
2023-01-07T10:51:01.081Z,999.90
2023-01-07T10:52:01.022Z,999.90
2023-01-07T10:53:01.023Z,999.90
2023-01-07T10:54:00.997Z,999.90
2023-01-07T10:55:00.997Z,999.90
2023-01-07T10:56:01.021Z,999.90
2023-01-07T10:57:00.953Z,999.90
2023-01-07T10:58:00.957Z,999.90
2023-01-07T10:59:00.925Z,999.90
2023-01-07T11:00:00.945Z,999.90
2023-01-07T11:01:01.117Z,999.90
2023-01-07T11:02:01.178Z,454.00
2023-01-07T11:03:01.008Z,775.60
2023-01-07T11:04:00.880Z,297.40
2023-01-07T11:05:00.880Z,412.60
2023-01-07T11:06:00.905Z,999.90
2023-01-07T11:07:00.857Z,483.90
2023-01-07T11:08:00.832Z,178.60
2023-01-07T11:09:00.837Z,37.60
2023-01-07T11:10:00.826Z,18.80
2023-01-07T11:11:00.840Z,18.70
2023-01-07T11:12:00.799Z,19.10
2023-01-07T11:13:00.770Z,23.50
2023-01-07T11:14:00.782Z,21.00
2023-01-07T11:15:00.809Z,17.80
2023-01-07T11:16:00.776Z,16.40
2023-01-07T11:17:00.735Z,17.00
2023-01-07T11:18:00.722Z,14.70
2023-01-07T11:19:00.715Z,14.30
2023-01-07T11:20:00.721Z,15.40
2023-01-07T11:21:00.731Z,11.70
2023-01-07T11:22:00.667Z,11.50
2023-01-07T11:23:00.688Z,10.70
2023-01-07T11:24:00.674Z,12.50
2023-01-07T11:25:00.660Z,12.80
2023-01-07T11:26:00.646Z,12.40
2023-01-07T11:27:00.610Z,12.20
2023-01-07T11:28:00.614Z,10.50
2023-01-07T11:29:00.585Z,9.90
2023-01-07T11:30:00.613Z,9.90
2023-01-07T11:31:00.633Z,10.30
2023-01-07T11:32:00.683Z,10.70
2023-01-07T11:33:00.559Z,9.30
2023-01-07T11:34:02.157Z,9.70
2023-01-07T11:35:00.527Z,9.80
2023-01-07T11:36:00.572Z,10.30
2023-01-07T11:37:00.493Z,10.20
2023-01-07T11:38:00.513Z,10.20
2023-01-07T11:39:00.474Z,11.70
2023-01-07T11:40:00.492Z,9.20
2023-01-07T11:41:00.822Z,8.50
2023-01-07T11:42:00.452Z,9.80
2023-01-07T11:43:00.428Z,12.90
2023-01-07T11:44:00.423Z,11.50
2023-01-07T11:45:00.444Z,11.70
2023-01-07T11:46:19.086Z,11.40
2023-01-07T11:47:01.414Z,11.00
2023-01-07T11:48:00.376Z,10.70
2023-01-07T11:49:00.383Z,10.40
2023-01-07T11:50:00.359Z,9.80
2023-01-07T11:51:00.393Z,11.50
2023-01-07T11:52:00.339Z,10.30
2023-01-07T11:53:00.336Z,10.50
2023-01-07T11:54:00.328Z,11.20
2023-01-07T11:55:00.285Z,13.10
2023-01-07T11:56:00.326Z,12.80
2023-01-07T11:57:00.278Z,12.10
2023-01-07T11:58:28.809Z,12.40
2023-01-07T11:59:01.270Z,13.60
2023-01-07T12:00:00.253Z,19.30
2023-01-07T12:01:00.313Z,14.10
2023-01-07T12:02:00.291Z,13.90
2023-01-07T12:03:00.221Z,12.00
2023-01-07T12:04:00.195Z,13.20
2023-01-07T12:05:00.199Z,11.10
2023-01-07T12:06:00.372Z,10.30
2023-01-07T12:07:00.174Z,9.50
2023-01-07T12:08:00.162Z,10.80
2023-01-07T12:09:00.132Z,10.20
2023-01-07T12:10:00.141Z,9.20
2023-01-07T12:11:00.152Z,9.50
2023-01-07T12:12:00.104Z,9.90
2023-01-07T12:13:00.113Z,9.90
2023-01-07T12:14:00.119Z,10.70
2023-01-07T12:15:00.087Z,8.00
2023-01-07T12:16:00.164Z,7.60
2023-01-07T12:17:00.046Z,7.90
2023-01-07T12:18:00.047Z,8.10
2023-01-07T12:19:00.049Z,7.90
2023-01-07T12:20:00.033Z,8.70
2023-01-07T12:21:00.080Z,9.50
2023-01-07T12:22:00.031Z,9.50
2023-01-07T12:22:59.991Z,9.00
2023-01-07T12:23:59.998Z,9.00
2023-01-07T12:24:59.959Z,12.10
2023-01-07T12:26:00.032Z,16.40
2023-01-07T12:26:59.964Z,14.30
2023-01-07T12:27:59.928Z,13.90
2023-01-07T12:28:59.924Z,13.00
2023-01-07T12:29:59.887Z,13.60
2023-01-07T12:30:59.935Z,12.40
2023-01-07T12:31:59.885Z,14.00